Time;durP1;ratioP1;P1;durP2;ratioP2;P2;SDS_P1;SDS_P2;PMS_P1;PMS_P2;Temp;Humidity;BMP_temperature;BMP_pressure;BME280_temperature;BME280_humidity;BME280_pressure;Samples;Min_cycle;Max_cycle;Signal;HPM_P1;HPM_P2
2021/12/03 00:00:52;;;;;;;15.52;8.55;;;;;;;1.88;89.08;98968.53;5113961;28;20196;-71
2021/12/03 00:03:20;;;;;;;13.75;9.10;;;;;;;1.90;88.89;98967.59;5113786;28;20187;-71
2021/12/03 00:05:48;;;;;;;13.02;8.38;;;;;;;1.83;89.05;98957.19;5114104;28;20203;-71
2021/12/03 00:08:14;;;;;;;10.60;7.30;;;;;;;1.76;89.98;98968.91;5112742;28;20222;-71
2021/12/03 00:10:43;;;;;;;13.02;7.95;;;;;;;1.72;90.19;98969.94;5113698;28;20194;-71
2021/12/03 00:13:10;;;;;;;12.70;8.00;;;;;;;1.66;90.93;98968.34;5113687;28;20193;-71
2021/12/03 00:15:37;;;;;;;12.20;8.38;;;;;;;1.79;90.24;98976.78;5113490;27;20276;-71
2021/12/03 00:18:04;;;;;;;12.60;8.48;;;;;;;1.58;90.76;98980.13;5114011;28;20204;-71
2021/12/03 00:20:35;;;;;;;12.93;7.55;;;;;;;1.61;91.38;98983.56;5114114;28;20186;-72
2021/12/03 00:23:03;;;;;;;12.07;8.77;;;;;;;1.67;91.16;98995.75;5113206;28;20195;-70
2021/12/03 00:25:30;;;;;;;15.15;9.10;;;;;;;1.64;91.28;98998.50;5111278;28;20220;-71
2021/12/03 00:27:57;;;;;;;14.02;7.75;;;;;;;1.65;91.00;98990.50;5113429;28;20208;-69
2021/12/03 00:30:23;;;;;;;12.68;8.48;;;;;;;1.56;91.38;98993.44;5113490;28;20637;-70
2021/12/03 00:32:50;;;;;;;9.80;7.45;;;;;;;1.71;90.84;98992.09;5113141;28;20550;-71
2021/12/03 00:35:18;;;;;;;12.55;8.20;;;;;;;1.56;91.51;98997.88;5113344;27;20492;-71
2021/12/03 00:37:47;;;;;;;10.43;8.10;;;;;;;1.66;91.24;99002.84;5113191;28;20188;-71
2021/12/03 00:40:17;;;;;;;15.00;8.40;;;;;;;1.82;89.25;99016.50;5113614;28;20194;-71
2021/12/03 00:42:44;;;;;;;12.40;8.65;;;;;;;1.84;88.56;99003.19;5105681;28;20276;-72
2021/12/03 00:45:13;;;;;;;13.07;8.10;;;;;;;1.52;90.14;99006.84;5112901;28;20279;-71
2021/12/03 00:47:42;;;;;;;9.27;7.93;;;;;;;1.68;90.38;99010.75;5104866;28;20245;-70
2021/12/03 00:50:11;;;;;;;14.18;8.77;;;;;;;1.66;90.30;99015.25;5113403;28;20190;-70
2021/12/03 00:52:38;;;;;;;11.45;7.97;;;;;;;1.86;89.47;99010.19;5104631;28;20195;-70
2021/12/03 00:55:08;;;;;;;11.48;7.95;;;;;;;1.84;88.47;99027.94;5112856;28;20191;-70
2021/12/03 00:57:35;;;;;;;11.77;7.55;;;;;;;2.10;86.95;99031.53;5113235;28;20183;-72
2021/12/03 01:00:02;;;;;;;16.13;8.40;;;;;;;2.03;86.74;99030.00;5113163;28;20192;-70
2021/12/03 01:02:28;;;;;;;12.70;8.30;;;;;;;1.93;86.30;99029.44;5112964;28;20195;-71
2021/12/03 01:04:55;;;;;;;11.05;8.30;;;;;;;1.69;88.41;99024.91;5113252;28;20201;-70
2021/12/03 01:07:22;;;;;;;11.25;7.75;;;;;;;1.92;88.07;99022.38;5111614;28;20247;-70
2021/12/03 01:09:48;;;;;;;14.20;8.30;;;;;;;1.76;87.80;99008.72;5113170;28;20545;-71
2021/12/03 01:12:17;;;;;;;12.88;8.00;;;;;;;1.80;88.70;99015.66;5112663;28;20200;-70
2021/12/03 01:14:44;;;;;;;12.27;8.52;;;;;;;1.79;88.63;99008.66;5113257;28;20239;-73
2021/12/03 01:17:11;;;;;;;11.90;8.10;;;;;;;1.79;88.95;99008.66;5112477;28;20227;-69
2021/12/03 01:19:38;;;;;;;11.25;8.10;;;;;;;2.03;87.35;99019.38;5112830;28;20210;-70
2021/12/03 01:22:05;;;;;;;10.80;7.75;;;;;;;2.02;86.46;99018.50;5112616;28;20201;-71
2021/12/03 01:24:32;;;;;;;10.55;7.85;;;;;;;1.80;87.75;99022.78;5104815;28;20233;-70
2021/12/03 01:26:59;;;;;;;11.35;7.97;;;;;;;1.49;89.31;99036.97;5112893;28;20200;-70
2021/12/03 01:29:27;;;;;;;10.38;8.27;;;;;;;1.25;91.06;99036.81;5112853;28;20205;-70
2021/12/03 01:31:56;;;;;;;14.25;9.13;;;;;;;1.17;92.60;99053.84;5112465;28;20274;-71
2021/12/03 01:34:24;;;;;;;13.70;8.88;;;;;;;1.24;92.64;99044.78;5112687;28;20207;-71
2021/12/03 01:36:50;;;;;;;9.95;7.28;;;;;;;1.15;93.38;99056.53;5112740;28;20567;-71
2021/12/03 01:39:17;;;;;;;12.50;7.65;;;;;;;1.51;92.23;99053.72;5112424;28;20195;-72
2021/12/03 01:41:45;;;;;;;11.05;7.28;;;;;;;1.57;91.22;99055.34;5112683;28;20613;-71
2021/12/03 01:44:11;;;;;;;9.43;7.72;;;;;;;1.71;90.32;99062.88;5112644;28;20196;-71
2021/12/03 01:46:39;;;;;;;12.20;7.75;;;;;;;1.76;89.77;99066.25;5112815;28;20214;-71
2021/12/03 01:49:09;;;;;;;12.80;7.97;;;;;;;1.98;88.89;99066.47;5112393;28;20213;-71
2021/12/03 01:51:36;;;;;;;11.75;7.68;;;;;;;1.81;88.86;99073.19;5112931;28;20641;-72
2021/12/03 01:54:02;;;;;;;12.00;7.63;;;;;;;2.15;86.25;99071.22;5111846;28;20212;-71
2021/12/03 01:56:29;;;;;;;10.88;8.10;;;;;;;2.24;86.12;99079.78;5112745;28;20194;-71
2021/12/03 01:58:56;;;;;;;8.32;6.95;;;;;;;2.13;86.22;99079.25;5112335;28;20200;-71
2021/12/03 02:01:27;;;;;;;15.00;7.47;;;;;;;2.13;85.83;99075.75;5112261;28;20192;-72
2021/12/03 02:03:57;;;;;;;13.25;8.60;;;;;;;1.70;86.96;99079.69;5112612;28;20206;-70
2021/12/03 02:06:25;;;;;;;10.48;7.88;;;;;;;1.55;89.29;99081.06;5105184;28;20187;-69
2021/12/03 02:08:53;;;;;;;9.43;7.47;;;;;;;1.90;88.21;99087.06;5112232;28;20666;-70
2021/12/03 02:11:20;;;;;;;10.38;7.97;;;;;;;2.10;86.78;99087.31;5104688;28;20645;-70
2021/12/03 02:13:47;;;;;;;13.73;8.75;;;;;;;2.05;86.82;99078.63;5112342;28;20192;-70
2021/12/03 02:16:15;;;;;;;10.75;8.20;;;;;;;2.02;87.44;99076.06;5111980;28;20302;-71
2021/12/03 02:18:41;;;;;;;8.70;6.85;;;;;;;2.29;85.99;99080.50;5112501;28;20205;-70
2021/12/03 02:21:11;;;;;;;8.52;6.22;;;;;;;2.33;84.84;99078.63;5112070;28;20195;-70
2021/12/03 02:23:39;;;;;;;16.17;7.32;;;;;;;2.21;85.53;99082.50;5111432;28;20235;-70
2021/12/03 02:26:06;;;;;;;12.38;7.50;;;;;;;2.16;86.29;99079.16;5112264;28;20640;-70
2021/12/03 02:28:35;;;;;;;10.85;8.25;;;;;;;2.24;86.23;99087.75;5112338;28;20213;-70
2021/12/03 02:31:04;;;;;;;15.02;8.23;;;;;;;2.22;86.13;99086.94;5111869;28;20198;-71
2021/12/03 02:33:31;;;;;;;10.75;7.93;;;;;;;2.11;86.66;99082.88;5115778;28;20196;-71
2021/12/03 02:35:57;;;;;;;10.77;7.53;;;;;;;2.44;85.51;99080.88;5115689;28;20191;-71
2021/12/03 02:38:26;;;;;;;10.55;7.47;;;;;;;2.46;85.53;99081.72;5115873;28;20280;-71
2021/12/03 02:40:54;;;;;;;11.70;7.88;;;;;;;2.53;85.33;99082.38;5115841;28;20199;-70
2021/12/03 02:43:21;;;;;;;11.38;7.95;;;;;;;2.58;84.00;99086.63;5116233;27;20277;-71
2021/12/03 02:45:50;;;;;;;12.25;7.90;;;;;;;2.61;84.09;99089.19;5115560;28;20196;-73
2021/12/03 02:48:17;;;;;;;9.70;6.70;;;;;;;2.63;83.54;99083.81;5115596;28;20661;-69
2021/12/03 02:50:44;;;;;;;10.88;7.50;;;;;;;2.83;82.81;99101.75;5115043;28;20196;-70
2021/12/03 02:53:11;;;;;;;11.32;7.35;;;;;;;2.60;83.68;99102.50;5115478;28;20283;-70
2021/12/03 02:55:39;;;;;;;10.10;7.32;;;;;;;2.40;84.76;99104.06;5114789;28;20184;-70
2021/12/03 02:58:06;;;;;;;9.68;8.07;;;;;;;2.54;84.17;99098.28;5108056;28;20472;-71
2021/12/03 03:00:33;;;;;;;11.73;6.97;;;;;;;2.49;84.26;99093.13;5114870;28;20191;-70
2021/12/03 03:03:00;;;;;;;9.32;7.10;;;;;;;2.65;83.51;99084.63;5114966;28;20195;-70
2021/12/03 03:05:28;;;;;;;12.52;7.88;;;;;;;2.49;83.51;99084.28;5115413;28;20198;-70
2021/12/03 03:07:55;;;;;;;8.70;7.13;;;;;;;2.45;84.32;99085.31;5114904;28;20564;-71
2021/12/03 03:10:27;;;;;;;11.45;7.72;;;;;;;2.60;83.13;99092.78;5115379;28;20206;-72
2021/12/03 03:12:57;;;;;;;9.70;7.05;;;;;;;2.43;84.29;99085.34;5115177;27;20543;-70
2021/12/03 03:15:23;;;;;;;10.60;7.15;;;;;;;2.48;84.13;99085.19;5114873;28;20200;-70
2021/12/03 03:17:50;;;;;;;10.77;7.78;;;;;;;2.55;83.88;99084.06;5114432;28;20203;-70
2021/12/03 03:20:21;;;;;;;9.25;6.90;;;;;;;2.41;84.47;99086.31;5114985;28;20187;-70
2021/12/03 03:22:50;;;;;;;9.93;6.90;;;;;;;2.42;84.00;99080.06;5114437;28;20204;-70
2021/12/03 03:25:19;;;;;;;9.88;7.20;;;;;;;2.63;83.87;99079.38;5114631;28;20223;-71
2021/12/03 03:27:47;;;;;;;14.65;7.40;;;;;;;2.72;82.34;99078.19;5114126;28;20202;-71
2021/12/03 03:30:18;;;;;;;9.60;6.93;;;;;;;2.68;82.86;99087.19;5115080;28;20196;-70
2021/12/03 03:32:46;;;;;;;10.65;7.22;;;;;;;2.59;82.74;99091.00;5114706;27;20533;-70
2021/12/03 03:35:13;;;;;;;10.57;7.70;;;;;;;2.45;84.25;99087.97;5114711;28;20184;-70
2021/12/03 03:37:40;;;;;;;9.30;7.22;;;;;;;2.64;83.42;99083.75;5114452;28;20207;-69
2021/12/03 03:40:09;;;;;;;13.60;8.25;;;;;;;2.42;84.44;99091.59;5114316;28;20601;-71
2021/12/03 03:42:35;;;;;;;9.93;7.00;;;;;;;2.51;84.50;99101.06;5114771;28;20190;-71
2021/12/03 03:45:03;;;;;;;13.93;7.93;;;;;;;2.77;83.37;99093.97;5114562;28;20191;-70
2021/12/03 03:47:31;;;;;;;9.02;7.55;;;;;;;2.88;82.91;99099.78;5114096;28;20198;-71
2021/12/03 03:49:58;;;;;;;10.75;7.88;;;;;;;3.01;81.60;99103.75;5114367;28;20200;-71
2021/12/03 03:52:27;;;;;;;11.48;7.55;;;;;;;2.97;81.88;99104.78;5114297;28;20211;-72
2021/12/03 03:54:54;;;;;;;9.82;7.93;;;;;;;2.89;81.63;99106.84;5114428;27;20644;-71
2021/12/03 03:57:20;;;;;;;12.52;8.85;;;;;;;2.89;81.96;99101.50;5113862;27;20192;-71
2021/12/03 03:59:47;;;;;;;12.23;8.30;;;;;;;2.75;82.78;99109.09;5114448;28;20499;-71
2021/12/03 04:02:13;;;;;;;9.20;7.05;;;;;;;2.71;82.91;99106.56;5114328;28;20186;-71
2021/12/03 04:04:41;;;;;;;10.57;7.60;;;;;;;2.54;83.56;99105.41;5114290;28;20195;-70
2021/12/03 04:07:08;;;;;;;11.40;8.20;;;;;;;2.72;83.18;99110.94;5114090;28;20633;-71
2021/12/03 04:09:35;;;;;;;8.95;7.25;;;;;;;2.75;83.02;99115.28;5113631;28;20219;-72
2021/12/03 04:12:02;;;;;;;9.93;7.43;;;;;;;2.87;82.83;99114.00;5113940;28;20516;-72
2021/12/03 04:14:29;;;;;;;15.50;7.93;;;;;;;3.07;81.73;99121.28;5114031;28;20283;-71
2021/12/03 04:16:55;;;;;;;10.77;7.90;;;;;;;3.17;80.85;99114.72;5113007;28;20196;-70
2021/12/03 04:19:22;;;;;;;9.38;7.10;;;;;;;3.23;80.60;99116.28;5113509;28;20188;-70
2021/12/03 04:21:50;;;;;;;9.75;7.57;;;;;;;3.12;80.38;99108.69;5113999;28;20204;-70
2021/12/03 04:24:16;;;;;;;13.93;8.45;;;;;;;3.03;80.90;99112.56;5113487;28;20322;-72
2021/12/03 04:26:43;;;;;;;10.10;7.55;;;;;;;3.00;81.90;99119.75;5113247;28;20184;-70
2021/12/03 04:29:10;;;;;;;9.10;6.85;;;;;;;3.14;80.61;99125.47;5113664;28;20661;-70
2021/12/03 04:31:36;;;;;;;11.40;8.18;;;;;;;3.10;80.07;99126.50;5113111;28;20196;-71
2021/12/03 04:34:03;;;;;;;10.75;8.20;;;;;;;3.07;79.92;99130.13;5113630;27;20202;-71
2021/12/03 04:36:30;;;;;;;11.32;6.75;;;;;;;2.76;79.69;99129.44;5113454;28;20644;-71
2021/12/03 04:38:58;;;;;;;9.07;7.40;;;;;;;2.81;80.54;99132.84;5113671;28;20274;-70
2021/12/03 04:41:24;;;;;;;11.45;6.90;;;;;;;2.86;79.61;99138.84;5113083;28;20192;-71
2021/12/03 04:43:51;;;;;;;10.75;6.70;;;;;;;2.83;79.75;99137.19;5113627;28;20509;-71
2021/12/03 04:46:19;;;;;;;10.07;6.50;;;;;;;2.84;79.12;99141.56;5112707;28;20192;-71
2021/12/03 04:48:46;;;;;;;8.88;6.50;;;;;;;2.73;79.50;99127.75;5113078;28;20207;-71
2021/12/03 04:51:13;;;;;;;7.68;6.13;;;;;;;2.64;79.14;99130.72;5113193;28;20192;-72
2021/12/03 04:53:39;;;;;;;9.25;6.22;;;;;;;2.45;79.07;99128.69;5112948;28;20202;-72
2021/12/03 04:56:08;;;;;;;12.30;5.45;;;;;;;2.42;79.96;99127.91;5111770;28;20199;-73
2021/12/03 04:58:34;;;;;;;9.40;6.57;;;;;;;2.34;80.39;99135.28;5113496;28;20187;-71
2021/12/03 05:01:01;;;;;;;6.30;5.40;;;;;;;2.37;80.03;99132.50;5112355;28;20191;-71
2021/12/03 05:03:29;;;;;;;6.55;5.35;;;;;;;2.51;79.86;99127.63;5112993;28;20627;-70
2021/12/03 05:05:59;;;;;;;7.13;5.72;;;;;;;2.54;79.27;99137.28;5113033;28;20710;-70
2021/12/03 05:08:27;;;;;;;8.90;5.88;;;;;;;2.76;78.56;99134.75;5112269;28;20253;-71
2021/12/03 05:10:55;;;;;;;9.00;5.75;;;;;;;2.69;78.37;99131.44;5112719;28;20202;-71
2021/12/03 05:13:25;;;;;;;11.23;5.45;;;;;;;2.68;78.28;99122.59;5112877;28;20207;-72
2021/12/03 05:15:52;;;;;;;7.43;5.75;;;;;;;2.80;78.03;99123.97;5112361;28;20190;-71
2021/12/03 05:18:21;;;;;;;11.40;5.68;;;;;;;2.78;77.70;99124.94;5112128;28;20231;-71
2021/12/03 05:20:50;;;;;;;7.28;5.35;;;;;;;2.92;77.11;99126.22;5112855;28;20223;-72
2021/12/03 05:23:18;;;;;;;11.60;5.45;;;;;;;2.98;76.61;99125.13;5112690;28;20626;-71
2021/12/03 05:25:44;;;;;;;7.28;5.60;;;;;;;2.90;76.83;99130.72;5112729;28;20578;-72
2021/12/03 05:28:11;;;;;;;15.98;7.00;;;;;;;2.81;77.33;99136.34;5111982;28;20199;-72
2021/12/03 05:30:39;;;;;;;8.25;6.45;;;;;;;3.04;77.00;99137.34;5112638;28;20204;-72
2021/12/03 05:33:07;;;;;;;11.23;6.38;;;;;;;3.03;76.82;99131.19;5111940;28;20199;-71
2021/12/03 05:35:35;;;;;;;6.97;5.40;;;;;;;2.96;77.35;99145.59;5111835;28;20192;-71
2021/12/03 05:38:02;;;;;;;8.57;6.10;;;;;;;2.87;78.02;99143.25;5112556;28;20290;-72
2021/12/03 05:40:30;;;;;;;9.48;6.72;;;;;;;2.99;77.53;99149.97;5112648;28;20271;-71
2021/12/03 05:42:56;;;;;;;10.30;5.78;;;;;;;2.91;77.81;99145.75;5112555;28;20565;-72
2021/12/03 05:45:26;;;;;;;10.43;5.53;;;;;;;3.00;78.13;99151.69;5111830;28;20196;-71
2021/12/03 05:47:54;;;;;;;8.68;6.07;;;;;;;2.71;79.23;99153.53;5112324;28;20285;-70
2021/12/03 05:50:22;;;;;;;10.73;6.22;;;;;;;2.77;79.05;99158.66;5112208;28;20211;-71
2021/12/03 05:52:50;;;;;;;11.20;6.63;;;;;;;2.91;79.09;99159.03;5111970;28;20204;-70
2021/12/03 05:55:17;;;;;;;8.73;6.43;;;;;;;2.93;79.12;99156.34;5107601;28;20552;-71
2021/12/03 05:57:45;;;;;;;8.90;7.43;;;;;;;2.89;79.59;99160.91;5111682;28;20555;-71
2021/12/03 06:00:15;;;;;;;10.88;7.28;;;;;;;3.13;78.88;99169.81;5108974;28;20191;-69
2021/12/03 06:02:42;;;;;;;13.38;7.10;;;;;;;3.24;78.51;99171.25;5112363;28;20195;-71
2021/12/03 06:05:10;;;;;;;7.60;6.75;;;;;;;3.08;78.79;99166.47;5112026;28;20640;-71
2021/12/03 06:07:37;;;;;;;8.35;6.65;;;;;;;3.08;79.39;99162.94;5114716;28;20196;-70
2021/12/03 06:10:04;;;;;;;8.93;6.10;;;;;;;2.82;80.50;99162.00;5115719;28;20622;-70
2021/12/03 06:12:31;;;;;;;10.63;7.30;;;;;;;2.86;80.66;99176.94;5116103;28;20190;-69
2021/12/03 06:14:58;;;;;;;8.65;6.55;;;;;;;2.72;81.07;99179.22;5115616;28;20282;-70
2021/12/03 06:17:24;;;;;;;11.88;7.97;;;;;;;2.86;81.56;99181.41;5115859;28;20611;-72
2021/12/03 06:19:51;;;;;;;9.80;6.82;;;;;;;2.99;80.92;99197.84;5114567;28;20274;-73
2021/12/03 06:22:19;;;;;;;8.00;6.60;;;;;;;2.79;80.80;99193.16;5115559;28;20607;-70
2021/12/03 06:24:45;;;;;;;14.20;8.23;;;;;;;2.63;82.26;99201.63;5114688;28;20695;-71
2021/12/03 06:27:12;;;;;;;9.75;8.45;;;;;;;2.46;83.04;99215.44;5115093;28;20200;-70
2021/12/03 06:29:39;;;;;;;13.27;7.82;;;;;;;2.60;82.74;99215.03;5115229;28;20226;-72
2021/12/03 06:32:09;;;;;;;11.70;8.25;;;;;;;2.52;82.67;99210.88;5115017;28;20218;-71
2021/12/03 06:34:35;;;;;;;10.43;7.50;;;;;;;2.50;82.32;99214.44;5114125;28;20652;-71
2021/12/03 06:37:02;;;;;;;9.68;7.40;;;;;;;2.77;81.40;99213.63;5114651;28;20202;-72
2021/12/03 06:39:30;;;;;;;9.30;6.80;;;;;;;2.71;80.91;99212.91;5114703;27;20192;-72
2021/12/03 06:41:57;;;;;;;13.35;9.50;;;;;;;2.93;80.03;99209.53;5114135;28;20282;-71
2021/12/03 06:44:25;;;;;;;8.40;6.70;;;;;;;2.69;80.56;99217.41;5115208;28;20271;-72
2021/12/03 06:46:53;;;;;;;9.57;7.55;;;;;;;2.78;81.24;99223.31;5114381;28;20207;-71
2021/12/03 06:49:20;;;;;;;8.90;7.05;;;;;;;2.84;81.27;99231.09;5113823;28;20223;-71
2021/12/03 06:51:47;;;;;;;11.15;8.27;;;;;;;2.86;81.12;99226.59;5115035;28;20203;-71
2021/12/03 06:54:23;;;;;;;9.10;6.70;;;;;;;2.78;80.65;99241.94;5115032;28;20188;-71
2021/12/03 06:56:52;;;;;;;8.30;6.95;;;;;;;2.67;80.69;99235.19;5115074;28;20625;-72
2021/12/03 06:59:20;;;;;;;10.25;7.82;;;;;;;2.67;81.67;99229.88;5114384;28;20253;-70
2021/12/03 07:01:47;;;;;;;7.60;6.65;;;;;;;2.62;80.92;99221.19;5114594;28;20192;-70
2021/12/03 07:04:13;;;;;;;10.00;7.97;;;;;;;2.72;81.78;99225.25;5114410;28;20191;-74
2021/12/03 07:06:40;;;;;;;8.50;7.60;;;;;;;2.81;81.02;99226.75;5114768;28;20225;-71
2021/12/03 07:09:07;;;;;;;8.68;7.40;;;;;;;2.91;81.55;99222.00;5114740;28;20753;-72
2021/12/03 07:11:34;;;;;;;9.48;7.35;;;;;;;2.98;80.31;99226.19;5114583;28;20183;-71
2021/12/03 07:14:03;;;;;;;9.00;5.97;;;;;;;2.90;80.20;99221.13;5113851;28;20287;-70
2021/12/03 07:16:29;;;;;;;10.45;7.03;;;;;;;2.89;80.95;99227.41;5113510;28;20194;-73
2021/12/03 07:18:57;;;;;;;10.48;7.38;;;;;;;2.81;81.40;99232.06;5114145;28;20194;-70
2021/12/03 07:21:23;;;;;;;9.18;6.10;;;;;;;2.69;81.79;99235.13;5113329;28;20202;-72
2021/12/03 07:23:51;;;;;;;12.80;7.25;;;;;;;2.93;81.21;99231.66;5112173;28;20229;-72
2021/12/03 07:26:18;;;;;;;9.15;7.00;;;;;;;3.06;81.04;99239.25;5113948;27;20180;-72
2021/12/03 07:28:45;;;;;;;9.52;7.80;;;;;;;3.05;80.99;99240.16;5114553;28;20652;-70
2021/12/03 07:31:14;;;;;;;9.95;7.43;;;;;;;2.95;81.01;99250.25;5113959;28;20210;-69
2021/12/03 07:33:41;;;;;;;11.80;7.18;;;;;;;2.86;81.68;99246.09;5114637;28;20190;-71
2021/12/03 07:36:08;;;;;;;9.07;6.93;;;;;;;2.77;82.06;99250.84;5114048;28;20188;-69
2021/12/03 07:38:36;;;;;;;9.23;6.78;;;;;;;2.58;83.34;99240.78;5114070;28;20184;-69
2021/12/03 07:41:04;;;;;;;11.73;6.90;;;;;;;2.84;83.13;99241.75;5114275;27;20290;-71
2021/12/03 07:43:31;;;;;;;10.82;7.38;;;;;;;2.93;81.99;99250.28;5112998;28;20196;-72
2021/12/03 07:45:58;;;;;;;12.73;7.30;;;;;;;3.03;81.41;99250.88;5112048;28;20201;-71
2021/12/03 07:48:27;;;;;;;9.60;7.57;;;;;;;3.04;80.66;99249.94;5111924;28;20287;-70
2021/12/03 07:50:56;;;;;;;12.88;7.88;;;;;;;3.16;81.31;99250.44;5112108;28;20219;-70
2021/12/03 07:53:23;;;;;;;11.52;7.05;;;;;;;3.12;81.20;99247.91;5111551;28;20613;-71
2021/12/03 07:55:51;;;;;;;9.30;6.53;;;;;;;2.84;82.10;99255.03;5111851;28;20315;-72
2021/12/03 07:58:19;;;;;;;8.43;6.40;;;;;;;2.79;82.38;99247.22;5104837;28;20195;-70
2021/12/03 08:00:47;;;;;;;10.70;6.95;;;;;;;2.72;83.12;99248.34;5112321;28;20187;-70
2021/12/03 08:03:14;;;;;;;10.52;7.90;;;;;;;2.74;83.45;99245.59;5112394;27;20190;-72
2021/12/03 08:05:42;;;;;;;11.60;7.28;;;;;;;2.54;84.62;99236.47;5113281;28;20200;-72
2021/12/03 08:08:08;;;;;;;8.95;6.60;;;;;;;2.82;84.30;99248.91;5113465;28;20184;-72
2021/12/03 08:10:35;;;;;;;11.40;6.63;;;;;;;2.84;83.03;99244.41;5113714;27;20219;-72
2021/12/03 08:13:02;;;;;;;9.02;6.88;;;;;;;2.94;82.22;99267.13;5113614;27;20240;-72
2021/12/03 08:15:30;;;;;;;7.60;5.80;;;;;;;2.90;82.19;99257.50;5113079;28;20202;-71
2021/12/03 08:17:56;;;;;;;9.55;6.10;;;;;;;2.82;81.18;99271.03;5114190;28;20180;-73
2021/12/03 08:20:23;;;;;;;8.52;6.15;;;;;;;2.87;81.04;99270.88;5113547;28;20602;-72
2021/12/03 08:22:51;;;;;;;10.85;6.07;;;;;;;3.11;80.35;99262.09;5113357;28;20196;-72
2021/12/03 08:25:18;;;;;;;7.63;5.32;;;;;;;2.96;80.15;99267.06;5112865;28;20255;-71
2021/12/03 08:27:45;;;;;;;7.78;5.50;;;;;;;2.93;80.49;99268.03;5113843;28;20180;-72
2021/12/03 08:30:13;;;;;;;8.70;6.13;;;;;;;2.89;80.82;99266.38;5112410;27;20219;-73
2021/12/03 08:32:41;;;;;;;10.90;6.80;;;;;;;3.17;80.94;99261.06;5113315;28;20207;-73
2021/12/03 08:35:08;;;;;;;8.10;5.50;;;;;;;3.26;79.27;99267.88;5113100;28;20249;-73
2021/12/03 08:37:34;;;;;;;8.30;6.18;;;;;;;2.97;79.53;99268.81;5112965;28;20275;-73
2021/12/03 08:40:05;;;;;;;7.13;6.00;;;;;;;3.01;79.03;99267.78;5112766;28;20199;-73
2021/12/03 08:42:32;;;;;;;7.90;5.35;;;;;;;2.83;79.66;99277.25;5113341;28;20194;-73
2021/12/03 08:44:59;;;;;;;7.43;5.28;;;;;;;2.94;79.60;99259.16;5113106;28;20217;-73
2021/12/03 08:47:26;;;;;;;7.55;5.32;;;;;;;2.84;79.39;99268.34;5113383;28;20694;-72
2021/12/03 08:49:54;;;;;;;11.95;6.38;;;;;;;2.82;79.81;99263.06;5103200;28;20654;-74
2021/12/03 08:52:45;;;;;;;10.05;5.88;;;;;;;3.08;79.18;99253.38;5112530;28;20283;-72
2021/12/03 08:55:13;;;;;;;9.50;5.78;;;;;;;3.27;78.09;99257.16;5113242;28;20608;-73
2021/12/03 08:57:40;;;;;;;13.57;6.80;;;;;;;3.16;78.71;99243.34;5112878;28;20188;-71
2021/12/03 09:00:11;;;;;;;8.02;6.05;;;;;;;3.38;77.68;99239.97;5109680;28;20207;-72
2021/12/03 09:02:37;;;;;;;8.38;6.07;;;;;;;3.13;78.08;99240.78;5111671;28;20638;-70
2021/12/03 09:05:04;;;;;;;16.80;7.70;;;;;;;3.44;77.63;99248.59;5111941;28;20567;-70
2021/12/03 09:07:32;;;;;;;12.23;7.45;;;;;;;3.38;77.28;99248.81;5112421;28;20687;-71
2021/12/03 09:09:59;;;;;;;14.70;8.05;;;;;;;3.42;77.84;99246.91;5112999;28;20306;-70
2021/12/03 09:12:27;;;;;;;10.82;7.97;;;;;;;3.38;78.25;99253.25;5112024;28;20235;-72
2021/12/03 09:14:55;;;;;;;11.35;6.55;;;;;;;3.16;78.36;99253.13;5112997;28;20291;-71
2021/12/03 09:17:32;;;;;;;11.48;6.50;;;;;;;3.02;78.93;99246.47;5112548;28;20200;-71
2021/12/03 09:20:05;;;;;;;11.82;7.60;;;;;;;2.65;81.55;99250.31;5112863;28;20214;-71
2021/12/03 09:23:31;;;;;;;10.00;7.50;;;;;;;3.10;79.16;99249.75;5112055;28;20207;-69
2021/12/03 09:26:06;;;;;;;5.93;5.32;;;;;;;3.02;79.24;99246.47;5096667;28;20180;-71
2021/12/03 09:28:36;;;;;;;7.70;6.10;;;;;;;3.12;77.65;99242.59;5111716;28;20187;-70
2021/12/03 09:31:03;;;;;;;10.73;6.25;;;;;;;3.27;77.53;99246.50;5109770;28;20288;-70
2021/12/03 09:33:31;;;;;;;6.43;5.80;;;;;;;3.13;77.02;99243.44;5111472;28;20231;-70
2021/12/03 09:36:01;;;;;;;10.75;6.70;;;;;;;3.12;77.88;99247.00;5112367;28;20207;-71
2021/12/03 09:38:31;;;;;;;8.50;7.22;;;;;;;3.18;78.01;99248.63;5112333;28;20192;-71
2021/12/03 09:41:05;;;;;;;8.77;6.80;;;;;;;3.10;77.70;99257.72;5113529;28;20211;-73
2021/12/03 09:43:32;;;;;;;11.23;7.57;;;;;;;3.18;77.30;99257.47;5115427;28;20222;-72
2021/12/03 09:46:05;;;;;;;10.85;7.53;;;;;;;3.10;77.35;99255.06;5116493;28;20226;-71
2021/12/03 09:48:42;;;;;;;12.20;7.75;;;;;;;3.29;77.00;99260.63;5116929;28;20617;-70
2021/12/03 09:51:09;;;;;;;6.82;5.90;;;;;;;3.21;75.77;99240.50;5116349;28;20204;-73
2021/12/03 09:54:01;;;;;;;8.48;5.93;;;;;;;3.39;75.14;99255.00;5116514;28;20281;-72
2021/12/03 09:56:31;;;;;;;12.30;6.10;;;;;;;3.37;75.01;99262.16;5116422;28;20194;-71
2021/12/03 09:59:34;;;;;;;10.90;5.78;;;;;;;3.25;74.62;99255.47;5114583;28;20199;-71
2021/12/03 10:02:09;;;;;;;12.13;7.85;;;;;;;3.59;74.46;99256.97;5113561;28;20194;-71
2021/12/03 10:04:52;;;;;;;7.18;5.90;;;;;;;3.42;74.31;99261.09;5116011;28;20188;-72
2021/12/03 10:13:10;;;;;;;13.77;7.45;;;;;;;3.29;75.59;99238.47;5093683;28;20232;-71
2021/12/03 10:15:49;;;;;;;12.38;6.60;;;;;;;3.36;75.25;99247.97;5092908;28;20959;-72
2021/12/03 10:18:32;;;;;;;14.50;8.38;;;;;;;3.61;74.49;99240.00;5105502;28;20199;-71
2021/12/03 10:21:03;;;;;;;11.10;5.80;;;;;;;3.46;73.84;99254.75;5116014;28;20180;-71
2021/12/03 10:24:08;;;;;;;8.25;6.47;;;;;;;3.03;76.34;99253.53;5114324;28;20646;-72
2021/12/03 10:29:30;;;;;;;10.57;6.60;;;;;;;3.08;76.94;99248.91;5114861;28;20199;-71
2021/12/03 10:35:05;;;;;;;13.15;6.68;;;;;;;3.22;75.65;99228.97;5115564;28;20191;-72
2021/12/03 10:37:53;;;;;;;7.80;5.30;;;;;;;3.43;75.17;99216.69;5115268;28;20192;-70
2021/12/03 10:40:35;;;;;;;10.95;6.93;;;;;;;3.54;74.61;99222.50;5115090;28;20188;-72
2021/12/03 10:43:20;;;;;;;16.05;7.38;;;;;;;3.64;74.61;99217.72;5112906;28;20222;-71
2021/12/03 10:46:07;;;;;;;15.23;6.78;;;;;;;3.34;74.93;99212.56;5115842;28;20654;-71
2021/12/03 11:30:24;;;;;;;14.98;8.93;;;;;;;4.25;72.11;99159.50;5088019;28;20663;-71
2021/12/03 11:39:12;;;;;;;13.68;8.77;;;;;;;4.37;71.05;99140.34;5045609;27;20542;-71
2021/12/03 13:21:49;;;;;;;10.30;7.00;;;;;;;5.05;67.79;99037.97;5062942;28;20190;-72
2021/12/03 14:40:36;;;;;;;5.00;4.28;;;;;;;4.63;69.83;98927.75;5092515;28;20530;-73
2021/12/03 14:46:41;;;;;;;6.60;4.65;;;;;;;4.63;69.95;98941.09;5088595;28;20268;-72
2021/12/03 14:52:03;;;;;;;4.88;4.18;;;;;;;4.73;69.42;98926.41;5097258;28;20592;-72
2021/12/03 14:54:48;;;;;;;8.02;4.15;;;;;;;4.60;70.17;98928.75;5073955;28;20224;-72
2021/12/03 14:57:28;;;;;;;5.45;4.00;;;;;;;4.53;70.06;98924.63;5072459;28;20256;-71
2021/12/03 15:00:04;;;;;;;5.10;4.50;;;;;;;4.65;70.01;98907.22;5087897;28;20582;-73
2021/12/03 15:02:48;;;;;;;11.15;4.75;;;;;;;4.68;69.91;98916.88;5092452;28;20275;-73
2021/12/03 15:08:01;;;;;;;6.55;4.80;;;;;;;4.56;70.69;98913.81;5076351;28;20232;-72
2021/12/03 15:10:37;;;;;;;6.10;4.60;;;;;;;4.46;70.80;98911.66;5091041;28;20198;-71
2021/12/03 15:27:08;;;;;;;7.97;5.40;;;;;;;4.80;69.83;98887.84;5091207;28;20196;-72
2021/12/03 15:32:40;;;;;;;5.93;4.65;;;;;;;4.63;70.05;98890.41;5039100;28;20191;-72
2021/12/03 15:35:13;;;;;;;6.55;4.57;;;;;;;4.54;70.85;98889.03;5012241;28;20211;-72
2021/12/03 15:38:13;;;;;;;6.97;4.68;;;;;;;4.57;70.68;98874.72;5059629;28;20235;-73
2021/12/03 16:08:39;;;;;;;7.60;5.38;;;;;;;4.69;70.35;98851.97;5043655;28;20186;-72
2021/12/03 16:11:12;;;;;;;7.90;4.40;;;;;;;4.67;70.23;98865.34;5091491;28;20203;-72
2021/12/03 16:13:48;;;;;;;4.65;4.20;;;;;;;4.62;69.95;98856.72;5086586;28;20191;-71
2021/12/03 16:19:13;;;;;;;6.20;4.65;;;;;;;4.58;70.42;98847.97;5090321;28;20212;-72
2021/12/03 16:22:02;;;;;;;5.80;4.78;;;;;;;4.67;70.43;98838.69;5091616;28;20220;-72
2021/12/03 16:44:18;;;;;;;7.50;4.47;;;;;;;4.47;70.83;98804.09;5069123;28;20650;-72
2021/12/03 16:47:01;;;;;;;5.40;4.30;;;;;;;4.45;70.87;98808.63;5069187;28;20205;-72
2021/12/03 16:52:13;;;;;;;9.40;5.40;;;;;;;4.63;71.19;98799.75;5069328;28;20188;-72
2021/12/03 16:54:42;;;;;;;8.52;5.35;;;;;;;4.65;70.45;98792.56;5069106;28;20194;-74
2021/12/03 16:57:10;;;;;;;6.75;4.90;;;;;;;4.65;70.22;98792.56;5069330;28;20236;-74
2021/12/03 16:59:40;;;;;;;8.30;6.05;;;;;;;4.68;69.99;98797.78;5069248;28;20197;-72
2021/12/03 17:02:08;;;;;;;9.98;6.68;;;;;;;4.65;70.54;98797.03;5069410;28;20304;-73